Park Valley, Utah
Current Conditions -  °F | °C
As of 6:53 AM on Saturday 25 Oct 2014 (Local Time) from KBYI Reporting Station
Clear Clear  
Wind Chill: 40°   Ceiling: Unl
Heat Index: 44°   Visibility: 10mi
Dew Point: 34°   Wind: 8mph
Humidity: 68%   Direction: 100°E
Pressure: 29.96"   Gusts: NA
Location:  41.82°N, 113.33°W
Report Text: KBYI 251253Z AUTO 10007KT 10SM CLR 07/01 A2996 RMK AO2 SLP123 T00670011
Loading
Personal Weather Stations






























Interactive Weather Map New forecast layout! Learn more

10-Day Weather Forecast

Advertisements
Track Severe Weather on mobile